Time;durP1;ratioP1;P1;durP2;ratioP2;P2;SDS_P1;SDS_P2;PMS_P1;PMS_P2;Temp;Humidity;BMP_temperature;BMP_pressure;BME280_temperature;BME280_humidity;BME280_pressure;Samples;Min_cycle;Max_cycle;Signal;HPM_P1;HPM_P2
2022/10/18 00:00:30;;;;;;;;;;;13.30;99.90;;;;;;5072050;28;19929;-68
2022/10/18 00:02:55;;;;;;;;;;;13.30;99.90;;;;;;5072803;28;19924;-69
2022/10/18 00:05:21;;;;;;;;;;;13.30;99.90;;;;;;5089176;28;19925;-69
2022/10/18 00:07:46;;;;;;;;;;;13.30;99.90;;;;;;5071982;28;19924;-68
2022/10/18 00:10:12;;;;;;;;;;;13.30;99.90;;;;;;5089000;28;20370;-68
2022/10/18 00:12:37;;;;;;;;;;;13.30;99.90;;;;;;5088616;28;19936;-69
2022/10/18 00:15:04;;;;;;;;;;;13.30;99.90;;;;;;5073113;28;20011;-68
2022/10/18 00:17:29;;;;;;;;;;;13.20;99.90;;;;;;5088614;28;20416;-69
2022/10/18 00:19:55;;;;;;;;;;;13.20;99.90;;;;;;5088712;28;19925;-68
2022/10/18 00:22:21;;;;;;;;;;;13.20;99.90;;;;;;5106107;28;20291;-69
2022/10/18 00:24:47;;;;;;;;;;;13.20;99.90;;;;;;5072747;28;19925;-69
2022/10/18 00:27:12;;;;;;;;;;;13.20;99.90;;;;;;5073051;28;19978;-68
2022/10/18 00:29:38;;;;;;;;;;;13.20;99.90;;;;;;5072589;28;19932;-69
2022/10/18 00:32:04;;;;;;;;;;;13.20;99.90;;;;;;5071806;28;19924;-69
2022/10/18 00:34:29;;;;;;;;;;;13.10;99.90;;;;;;5072874;28;19932;-68
2022/10/18 00:36:55;;;;;;;;;;;13.10;99.90;;;;;;5072032;28;19926;-69
2022/10/18 00:39:21;;;;;;;;;;;13.10;99.90;;;;;;5105263;28;19969;-69
2022/10/18 00:41:47;;;;;;;;;;;13.10;99.90;;;;;;5072416;28;19932;-69
2022/10/18 00:44:12;;;;;;;;;;;13.10;99.90;;;;;;5072639;28;20024;-68
2022/10/18 00:46:39;;;;;;;;;;;13.20;99.90;;;;;;5072290;28;20315;-69
2022/10/18 00:49:25;;;;;;;;;;;13.20;99.90;;;;;;5072596;28;19924;-69
2022/10/18 00:51:55;;;;;;;;;;;13.10;99.90;;;;;;5071464;28;20111;-68
2022/10/18 00:54:22;;;;;;;;;;;13.20;99.90;;;;;;5071607;28;20227;-69
2022/10/18 00:56:47;;;;;;;;;;;13.20;99.90;;;;;;5072209;28;19925;-69
2022/10/18 00:59:14;;;;;;;;;;;13.20;99.90;;;;;;5071875;28;20306;-68
2022/10/18 01:01:40;;;;;;;;;;;13.20;99.90;;;;;;5071960;28;20419;-69
2022/10/18 01:04:05;;;;;;;;;;;13.10;99.90;;;;;;5072518;28;19924;-69
2022/10/18 01:06:32;;;;;;;;;;;13.20;99.90;;;;;;5087984;28;20393;-68
2022/10/18 01:09:04;;;;;;;;;;;13.20;99.90;;;;;;5071893;28;20335;-68
2022/10/18 01:11:48;;;;;;;;;;;13.20;99.90;;;;;;5072566;28;19974;-68
2022/10/18 01:14:20;;;;;;;;;;;13.20;99.90;;;;;;5071445;28;19985;-69
2022/10/18 01:16:45;;;;;;;;;;;13.20;99.90;;;;;;5070689;28;19925;-68
2022/10/18 01:19:37;;;;;;;;;;;13.20;99.90;;;;;;5072114;28;19924;-69
2022/10/18 01:22:11;;;;;;;;;;;13.20;99.90;;;;;;5070616;28;20386;-68
2022/10/18 01:25:06;;;;;;;;;;;13.20;99.90;;;;;;5072113;28;20329;-69
2022/10/18 01:27:32;;;;;;;;;;;13.20;99.90;;;;;;5070476;28;20016;-69
2022/10/18 01:29:57;;;;;;;;;;;13.10;99.90;;;;;;5071556;28;20074;-67
2022/10/18 01:32:25;;;;;;;;;;;13.10;99.90;;;;;;5072270;28;19985;-69
2022/10/18 01:34:54;;;;;;;;;;;13.10;99.90;;;;;;5070716;28;19924;-68
2022/10/18 01:37:20;;;;;;;;;;;13.10;99.90;;;;;;5071862;28;19929;-68
2022/10/18 01:39:49;;;;;;;;;;;13.10;99.90;;;;;;5104429;28;19954;-68
2022/10/18 01:42:18;;;;;;;;;;;13.10;99.90;;;;;;5072122;28;20028;-68
2022/10/18 01:44:44;;;;;;;;;;;13.00;99.90;;;;;;5071968;28;20023;-68
2022/10/18 01:47:12;;;;;;;;;;;13.10;99.90;;;;;;5087174;28;19928;-68
2022/10/18 01:49:37;;;;;;;;;;;13.10;99.90;;;;;;5073536;28;20295;-68
2022/10/18 01:52:03;;;;;;;;;;;13.10;99.90;;;;;;5075526;28;19931;-68
2022/10/18 01:54:36;;;;;;;;;;;13.10;99.90;;;;;;5108649;28;19979;-68
2022/10/18 01:57:20;;;;;;;;;;;13.10;99.90;;;;;;5108486;28;19924;-68
2022/10/18 01:59:53;;;;;;;;;;;13.10;99.90;;;;;;5075604;28;20326;-69
2022/10/18 02:02:22;;;;;;;;;;;13.10;99.90;;;;;;5074725;28;19963;-69
2022/10/18 02:04:57;;;;;;;;;;;13.10;99.90;;;;;;5074978;28;19928;-69
2022/10/18 02:07:23;;;;;;;;;;;13.10;99.90;;;;;;5108738;28;19924;-68
2022/10/18 02:09:58;;;;;;;;;;;13.10;99.90;;;;;;5074350;28;20386;-68
2022/10/18 02:12:24;;;;;;;;;;;13.10;99.90;;;;;;5075928;28;20011;-68
2022/10/18 02:14:51;;;;;;;;;;;13.10;99.90;;;;;;5108554;28;19928;-68
2022/10/18 02:17:17;;;;;;;;;;;13.10;99.90;;;;;;5075599;28;19924;-69
2022/10/18 02:19:46;;;;;;;;;;;13.20;99.90;;;;;;5091057;28;20471;-68
2022/10/18 02:22:11;;;;;;;;;;;13.10;99.90;;;;;;5074914;28;19920;-67
2022/10/18 02:24:40;;;;;;;;;;;13.10;99.90;;;;;;5108399;28;19948;-68
2022/10/18 02:27:06;;;;;;;;;;;13.10;99.90;;;;;;5073940;28;19925;-69
2022/10/18 02:29:32;;;;;;;;;;;13.10;99.90;;;;;;5091066;28;19925;-68
2022/10/18 02:32:10;;;;;;;;;;;13.10;99.90;;;;;;5107918;28;19973;-68
2022/10/18 02:34:40;;;;;;;;;;;13.00;99.90;;;;;;5075386;28;20017;-68
2022/10/18 02:37:07;;;;;;;;;;;13.00;99.90;;;;;;5073473;28;20333;-69
2022/10/18 02:39:38;;;;;;;;;;;13.00;99.90;;;;;;5074340;28;20350;-69
2022/10/18 02:42:07;;;;;;;;;;;13.00;99.90;;;;;;5090381;28;19994;-68
2022/10/18 02:44:33;;;;;;;;;;;12.90;99.90;;;;;;5108088;28;19967;-67
2022/10/18 02:46:59;;;;;;;;;;;12.90;99.90;;;;;;5073385;28;19966;-68
2022/10/18 02:49:25;;;;;;;;;;;12.90;99.90;;;;;;5074933;28;19978;-67
2022/10/18 02:51:50;;;;;;;;;;;13.00;99.90;;;;;;5107486;28;19944;-68
2022/10/18 02:54:16;;;;;;;;;;;12.90;99.90;;;;;;5074584;28;19996;-68
2022/10/18 02:56:41;;;;;;;;;;;12.90;99.90;;;;;;5073970;28;20440;-68
2022/10/18 02:59:07;;;;;;;;;;;12.80;99.90;;;;;;5073489;28;20333;-68
2022/10/18 03:01:33;;;;;;;;;;;12.80;99.90;;;;;;5074342;28;19924;-69
2022/10/18 03:03:59;;;;;;;;;;;12.80;99.90;;;;;;5073977;28;20268;-69
2022/10/18 03:06:24;;;;;;;;;;;12.80;99.90;;;;;;5074757;28;19931;-68
2022/10/18 03:08:50;;;;;;;;;;;12.80;99.90;;;;;;5074455;28;20405;-69
2022/10/18 03:11:15;;;;;;;;;;;12.70;99.90;;;;;;5074319;28;19924;-68
2022/10/18 03:13:41;;;;;;;;;;;12.80;99.90;;;;;;5074399;28;20385;-68
2022/10/18 03:16:06;;;;;;;;;;;12.70;99.90;;;;;;5074018;28;19931;-68
2022/10/18 03:18:32;;;;;;;;;;;12.70;99.90;;;;;;5074092;28;19932;-69
2022/10/18 03:21:02;;;;;;;;;;;12.80;99.90;;;;;;5073904;28;20486;-69
2022/10/18 03:23:27;;;;;;;;;;;12.70;99.90;;;;;;5074103;28;19925;-68
2022/10/18 03:25:53;;;;;;;;;;;12.70;99.90;;;;;;5106809;28;19930;-69
2022/10/18 03:28:18;;;;;;;;;;;12.70;99.90;;;;;;5089539;28;19924;-68
2022/10/18 03:30:44;;;;;;;;;;;12.70;99.90;;;;;;5072498;28;20373;-70
2022/10/18 03:33:10;;;;;;;;;;;12.70;99.90;;;;;;5089295;28;19932;-69
2022/10/18 03:35:35;;;;;;;;;;;12.70;99.90;;;;;;5073892;28;19924;-69
2022/10/18 03:38:01;;;;;;;;;;;12.70;99.90;;;;;;5073344;28;19932;-69
2022/10/18 03:40:26;;;;;;;;;;;12.70;99.90;;;;;;5089272;28;19924;-69
2022/10/18 03:42:52;;;;;;;;;;;12.70;99.90;;;;;;5089539;28;19925;-69
2022/10/18 03:45:17;;;;;;;;;;;12.70;99.90;;;;;;5089032;28;19924;-69
2022/10/18 03:47:43;;;;;;;;;;;12.70;99.90;;;;;;5073487;28;19924;-69
2022/10/18 03:50:08;;;;;;;;;;;12.70;99.90;;;;;;5105880;28;19924;-68
2022/10/18 03:52:34;;;;;;;;;;;12.70;99.90;;;;;;5106226;28;20015;-69
2022/10/18 03:55:00;;;;;;;;;;;12.70;99.90;;;;;;5106381;28;20284;-68
2022/10/18 03:57:25;;;;;;;;;;;12.70;99.90;;;;;;5073306;28;20003;-69
2022/10/18 03:59:51;;;;;;;;;;;12.70;99.90;;;;;;5073324;28;20023;-68
2022/10/18 04:02:17;;;;;;;;;;;12.70;99.90;;;;;;5105405;28;19930;-69
2022/10/18 04:04:42;;;;;;;;;;;12.70;99.90;;;;;;5073580;28;19924;-68
2022/10/18 04:07:08;;;;;;;;;;;12.60;99.90;;;;;;5073426;28;20572;-68
2022/10/18 04:09:33;;;;;;;;;;;12.60;99.90;;;;;;5072320;28;20326;-69
2022/10/18 04:11:59;;;;;;;;;;;12.60;99.90;;;;;;5072681;28;19928;-69
2022/10/18 04:14:24;;;;;;;;;;;12.60;99.90;;;;;;5073004;28;19970;-68
2022/10/18 04:16:50;;;;;;;;;;;12.60;99.90;;;;;;5073250;28;19935;-69
2022/10/18 04:19:16;;;;;;;;;;;12.60;99.90;;;;;;5072880;28;19968;-69
2022/10/18 04:21:41;;;;;;;;;;;12.60;99.90;;;;;;5071861;28;19925;-69
2022/10/18 04:24:07;;;;;;;;;;;12.60;99.90;;;;;;5073096;28;19959;-68
2022/10/18 04:26:32;;;;;;;;;;;12.50;99.90;;;;;;5088119;28;20011;-69
2022/10/18 04:28:58;;;;;;;;;;;12.50;99.90;;;;;;5072866;28;20374;-69
2022/10/18 04:31:23;;;;;;;;;;;12.50;99.90;;;;;;5072700;28;19967;-69
2022/10/18 04:33:49;;;;;;;;;;;12.50;99.90;;;;;;5088524;28;19974;-69
2022/10/18 04:36:14;;;;;;;;;;;12.50;99.90;;;;;;5105138;28;20363;-69
2022/10/18 04:38:40;;;;;;;;;;;12.50;99.90;;;;;;5071622;28;19930;-67
2022/10/18 04:41:06;;;;;;;;;;;12.50;99.90;;;;;;5072625;28;20425;-70
2022/10/18 04:43:31;;;;;;;;;;;12.50;99.90;;;;;;5071908;28;19928;-68
2022/10/18 04:45:57;;;;;;;;;;;12.40;99.90;;;;;;5072534;28;20007;-69
2022/10/18 04:48:22;;;;;;;;;;;12.50;99.90;;;;;;5072209;28;19981;-68
2022/10/18 04:50:48;;;;;;;;;;;12.40;99.90;;;;;;5070849;28;20023;-68
2022/10/18 04:53:14;;;;;;;;;;;12.40;99.90;;;;;;5104887;28;19925;-69
2022/10/18 04:55:42;;;;;;;;;;;12.40;99.90;;;;;;5071734;28;20053;-68
2022/10/18 04:58:08;;;;;;;;;;;12.40;99.90;;;;;;5088227;28;20438;-69
2022/10/18 05:00:33;;;;;;;;;;;12.40;99.90;;;;;;5105046;28;20145;-69
2022/10/18 05:02:59;;;;;;;;;;;12.40;99.90;;;;;;5071421;28;19929;-68
2022/10/18 05:05:24;;;;;;;;;;;12.40;99.90;;;;;;5087827;28;20299;-68
2022/10/18 05:07:50;;;;;;;;;;;12.30;99.90;;;;;;5105436;28;19928;-69
2022/10/18 05:10:16;;;;;;;;;;;12.30;99.90;;;;;;5070551;28;19924;-68
2022/10/18 05:12:42;;;;;;;;;;;12.30;99.90;;;;;;5072364;28;19931;-69
2022/10/18 05:15:08;;;;;;;;;;;12.20;99.90;;;;;;5072406;28;19924;-69
2022/10/18 05:17:34;;;;;;;;;;;12.20;99.90;;;;;;5070826;28;19924;-69
2022/10/18 05:19:59;;;;;;;;;;;12.20;99.90;;;;;;5070656;28;19928;-69
2022/10/18 05:22:25;;;;;;;;;;;12.10;99.90;;;;;;5071660;28;19924;-68
2022/10/18 05:24:50;;;;;;;;;;;12.10;99.90;;;;;;5070673;28;19925;-68
2022/10/18 05:27:16;;;;;;;;;;;12.10;99.90;;;;;;5072384;28;19977;-68
2022/10/18 05:29:41;;;;;;;;;;;12.10;99.90;;;;;;5070516;28;20367;-69
2022/10/18 05:32:07;;;;;;;;;;;12.10;99.90;;;;;;5071107;28;19925;-68
2022/10/18 05:34:33;;;;;;;;;;;12.00;99.90;;;;;;5071737;28;19939;-68
2022/10/18 05:36:58;;;;;;;;;;;12.00;99.90;;;;;;5071945;28;19950;-69
2022/10/18 05:39:24;;;;;;;;;;;12.00;99.90;;;;;;5071810;28;19925;-69
2022/10/18 05:41:50;;;;;;;;;;;12.00;99.90;;;;;;5072045;28;19928;-68
2022/10/18 05:44:15;;;;;;;;;;;11.90;99.90;;;;;;5087522;28;19932;-68
2022/10/18 05:46:41;;;;;;;;;;;11.90;99.90;;;;;;5087558;28;19921;-69
2022/10/18 05:49:06;;;;;;;;;;;11.80;99.90;;;;;;5087689;28;19939;-68
2022/10/18 05:51:32;;;;;;;;;;;11.80;99.90;;;;;;5103677;28;19925;-69
2022/10/18 05:53:57;;;;;;;;;;;11.80;99.90;;;;;;5070425;28;19978;-69
2022/10/18 05:56:23;;;;;;;;;;;11.80;99.90;;;;;;5070475;28;19929;-69
2022/10/18 05:58:49;;;;;;;;;;;11.80;99.90;;;;;;5070856;28;19994;-68
2022/10/18 06:01:15;;;;;;;;;;;11.70;99.90;;;;;;5071973;28;20210;-69
2022/10/18 06:03:40;;;;;;;;;;;11.70;99.90;;;;;;5071436;28;19943;-69
2022/10/18 06:06:08;;;;;;;;;;;11.70;99.90;;;;;;5087442;28;20366;-69
2022/10/18 06:08:33;;;;;;;;;;;11.70;99.90;;;;;;5087191;28;19924;-69
2022/10/18 06:10:59;;;;;;;;;;;11.60;99.90;;;;;;5070307;28;20399;-69
2022/10/18 06:13:25;;;;;;;;;;;11.60;99.90;;;;;;5086630;28;19936;-69
2022/10/18 06:15:54;;;;;;;;;;;11.60;99.90;;;;;;5086801;28;20393;-68
2022/10/18 06:18:19;;;;;;;;;;;11.60;99.90;;;;;;5071422;28;20390;-69
2022/10/18 06:20:45;;;;;;;;;;;11.50;99.90;;;;;;5086733;28;19963;-69
2022/10/18 06:23:10;;;;;;;;;;;11.50;99.90;;;;;;5071500;28;20410;-69
2022/10/18 06:25:36;;;;;;;;;;;11.50;99.90;;;;;;5069879;28;19953;-68
2022/10/18 06:28:03;;;;;;;;;;;11.50;99.90;;;;;;5071248;28;19925;-68
2022/10/18 06:30:29;;;;;;;;;;;11.40;99.90;;;;;;5086532;28;19928;-68
2022/10/18 06:32:57;;;;;;;;;;;11.50;99.90;;;;;;5070073;28;20058;-69
2022/10/18 06:35:23;;;;;;;;;;;11.40;99.90;;;;;;5088927;28;19925;-69
2022/10/18 06:37:48;;;;;;;;;;;11.40;99.90;;;;;;5090016;28;20506;-69
2022/10/18 06:40:14;;;;;;;;;;;11.40;99.90;;;;;;5090870;28;19959;-69
2022/10/18 06:42:40;;;;;;;;;;;11.40;99.90;;;;;;5073366;28;20389;-68
2022/10/18 06:45:06;;;;;;;;;;;11.30;99.90;;;;;;5074891;28;19924;-68
2022/10/18 06:47:31;;;;;;;;;;;11.30;99.90;;;;;;5074522;28;20061;-68
2022/10/18 06:49:57;;;;;;;;;;;11.30;99.90;;;;;;5073118;28;19924;-67
2022/10/18 06:52:24;;;;;;;;;;;11.30;99.90;;;;;;5090780;28;20401;-67
2022/10/18 06:54:50;;;;;;;;;;;11.30;99.90;;;;;;5074295;28;19931;-66
2022/10/18 06:57:16;;;;;;;;;;;11.30;99.90;;;;;;5074907;28;20239;-69
2022/10/18 06:59:42;;;;;;;;;;;11.40;99.90;;;;;;5090090;28;19924;-68
2022/10/18 07:02:08;;;;;;;;;;;11.40;99.90;;;;;;5090340;28;20331;-69
2022/10/18 07:04:34;;;;;;;;;;;11.60;99.90;;;;;;5072934;28;20283;-68
2022/10/18 07:06:59;;;;;;;;;;;11.60;99.90;;;;;;5074591;28;19929;-68
2022/10/18 07:09:25;;;;;;;;;;;11.80;99.90;;;;;;5072763;28;19925;-67
2022/10/18 07:11:52;;;;;;;;;;;11.90;99.90;;;;;;5073625;28;19951;-68
2022/10/18 07:14:17;;;;;;;;;;;12.20;99.90;;;;;;5107301;28;19925;-68
2022/10/18 07:16:43;;;;;;;;;;;12.60;99.90;;;;;;5073136;28;19928;-68
2022/10/18 07:19:08;;;;;;;;;;;13.20;99.90;;;;;;5074142;28;19925;-69
2022/10/18 07:21:34;;;;;;;;;;;13.70;99.90;;;;;;5074006;28;19924;-68
2022/10/18 07:23:59;;;;;;;;;;;13.90;99.90;;;;;;5074712;28;19928;-68
2022/10/18 07:26:27;;;;;;;;;;;14.10;99.90;;;;;;5074304;28;19940;-68
2022/10/18 07:28:57;;;;;;;;;;;14.70;99.90;;;;;;5073985;28;19970;-69
2022/10/18 07:31:23;;;;;;;;;;;15.60;99.90;;;;;;5106989;28;19931;-67
2022/10/18 07:33:49;;;;;;;;;;;16.80;99.90;;;;;;5089394;28;19925;-67
2022/10/18 07:36:15;;;;;;;;;;;17.80;99.90;;;;;;5072294;28;19931;-67
2022/10/18 07:38:40;;;;;;;;;;;18.70;99.90;;;;;;5073019;28;19929;-68
2022/10/18 07:41:06;;;;;;;;;;;19.60;99.90;;;;;;5072529;28;19970;-68
2022/10/18 07:43:32;;;;;;;;;;;20.40;99.90;;;;;;5072380;28;19949;-67
2022/10/18 07:45:59;;;;;;;;;;;21.10;99.90;;;;;;5088807;28;19924;-68
2022/10/18 07:48:25;;;;;;;;;;;21.80;99.90;;;;;;5072496;28;19924;-67
2022/10/18 07:50:51;;;;;;;;;;;22.20;99.90;;;;;;5073703;28;19931;-68
2022/10/18 07:53:17;;;;;;;;;;;22.40;99.90;;;;;;5106594;28;20375;-68
2022/10/18 07:55:43;;;;;;;;;;;22.60;99.90;;;;;;5073522;28;20049;-68
2022/10/18 07:58:09;;;;;;;;;;;22.70;99.90;;;;;;5089402;28;19972;-67
2022/10/18 08:00:35;;;;;;;;;;;22.70;99.90;;;;;;5105840;28;20025;-66
2022/10/18 08:03:00;;;;;;;;;;;22.60;99.90;;;;;;5072568;28;19924;-67
2022/10/18 08:05:26;;;;;;;;;;;22.70;99.90;;;;;;5071438;28;20015;-66
2022/10/18 08:07:52;;;;;;;;;;;22.90;99.90;;;;;;5072846;28;19931;-66
2022/10/18 08:10:19;;;;;;;;;;;23.10;99.90;;;;;;5072350;28;20283;-67
2022/10/18 08:12:44;;;;;;;;;;;23.10;99.90;;;;;;5072596;28;19931;-68
2022/10/18 08:15:10;;;;;;;;;;;23.40;99.90;;;;;;5072824;28;19932;-65
2022/10/18 08:17:35;;;;;;;;;;;23.50;99.90;;;;;;5105949;28;20346;-64
2022/10/18 08:20:01;;;;;;;;;;;23.90;99.90;;;;;;5072507;28;19951;-67
2022/10/18 08:22:27;;;;;;;;;;;24.10;99.90;;;;;;5072595;28;19928;-66
2022/10/18 08:24:52;;;;;;;;;;;24.30;99.40;;;;;;5105459;28;20031;-65
2022/10/18 08:27:18;;;;;;;;;;;24.40;98.80;;;;;;5073184;28;20291;-67
2022/10/18 08:29:43;;;;;;;;;;;24.60;99.00;;;;;;5072295;28;20036;-66
2022/10/18 08:32:09;;;;;;;;;;;24.60;99.00;;;;;;5071689;28;19932;-66
2022/10/18 08:34:34;;;;;;;;;;;24.70;98.50;;;;;;5071548;28;19966;-67
2022/10/18 08:37:01;;;;;;;;;;;24.70;98.00;;;;;;5070555;28;19925;-66
2022/10/18 08:39:26;;;;;;;;;;;24.70;98.50;;;;;;5071764;28;19947;-65
2022/10/18 08:41:55;;;;;;;;;;;24.90;97.90;;;;;;5087858;28;19925;-65
2022/10/18 08:44:25;;;;;;;;;;;24.40;97.90;;;;;;5072593;28;19925;-66
2022/10/18 08:46:54;;;;;;;;;;;23.50;98.40;;;;;;5072192;28;19932;-66
2022/10/18 08:49:29;;;;;;;;;;;22.60;99.70;;;;;;5072548;28;19990;-66
2022/10/18 08:51:56;;;;;;;;;;;21.80;99.90;;;;;;5072320;28;20271;-65
2022/10/18 08:54:28;;;;;;;;;;;21.00;99.90;;;;;;5071642;28;19946;-68
2022/10/18 08:57:01;;;;;;;;;;;20.50;99.90;;;;;;5068759;28;19986;-69
2022/10/18 08:59:30;;;;;;;;;;;20.10;99.90;;;;;;5069628;28;19969;-71
2022/10/18 09:01:59;;;;;;;;;;;19.70;99.90;;;;;;5070386;28;20007;-68
2022/10/18 09:04:43;;;;;;;;;;;19.30;99.90;;;;;;5088307;28;20294;-69
2022/10/18 09:07:14;;;;;;;;;;;19.00;99.90;;;;;;5069235;28;19931;-68
2022/10/18 09:09:53;;;;;;;;;;;18.80;99.90;;;;;;5069570;28;19928;-68
2022/10/18 09:12:39;;;;;;;;;;;18.60;99.90;;;;;;5087001;28;20279;-70
2022/10/18 09:15:20;;;;;;;;;;;18.40;99.90;;;;;;5044590;28;19921;-69
2022/10/18 09:17:46;;;;;;;;;;;18.20;99.90;;;;;;5069191;28;19983;-68
2022/10/18 09:20:23;;;;;;;;;;;18.20;99.90;;;;;;5103598;28;19974;-67
2022/10/18 09:22:53;;;;;;;;;;;18.10;99.90;;;;;;5054340;28;20382;-68
2022/10/18 09:25:24;;;;;;;;;;;17.90;99.90;;;;;;5087036;28;19970;-68
2022/10/18 09:27:54;;;;;;;;;;;17.80;99.90;;;;;;5070126;28;20285;-68
2022/10/18 09:30:39;;;;;;;;;;;17.70;99.90;;;;;;5069624;28;20018;-66
2022/10/18 09:33:11;;;;;;;;;;;17.60;99.90;;;;;;5104321;28;19924;-67
2022/10/18 09:35:48;;;;;;;;;;;17.60;99.90;;;;;;5069652;28;20534;-67
2022/10/18 09:38:17;;;;;;;;;;;17.50;99.90;;;;;;5068725;28;19936;-66
2022/10/18 09:40:47;;;;;;;;;;;17.50;99.90;;;;;;5086895;28;19974;-66
2022/10/18 09:43:15;;;;;;;;;;;17.50;99.90;;;;;;5069746;28;19937;-66
2022/10/18 09:45:43;;;;;;;;;;;17.50;99.90;;;;;;5071355;28;19932;-67
2022/10/18 09:48:12;;;;;;;;;;;17.40;99.90;;;;;;5103500;28;19925;-69
2022/10/18 09:50:47;;;;;;;;;;;17.40;99.90;;;;;;5103291;28;19931;-69
2022/10/18 09:53:16;;;;;;;;;;;17.40;99.90;;;;;;5070275;28;20116;-69
2022/10/18 09:55:51;;;;;;;;;;;17.40;99.90;;;;;;5070865;28;19931;-68
2022/10/18 09:58:17;;;;;;;;;;;17.40;99.90;;;;;;5070515;28;20011;-68
2022/10/18 10:00:47;;;;;;;;;;;17.40;99.90;;;;;;5070700;28;19925;-68
2022/10/18 10:03:14;;;;;;;;;;;17.40;99.90;;;;;;5070460;28;20291;-67
2022/10/18 10:05:40;;;;;;;;;;;17.40;99.90;;;;;;5071056;28;19928;-67
2022/10/18 10:08:06;;;;;;;;;;;17.40;99.90;;;;;;5070221;28;19925;-67
2022/10/18 10:10:32;;;;;;;;;;;17.40;99.90;;;;;;5073778;28;19989;-67
2022/10/18 10:13:02;;;;;;;;;;;17.40;99.90;;;;;;5108372;28;20451;-66
2022/10/18 10:15:28;;;;;;;;;;;17.40;99.90;;;;;;5075602;28;20213;-68
2022/10/18 10:18:04;;;;;;;;;;;17.30;99.90;;;;;;5075608;28;19966;-67
2022/10/18 10:20:35;;;;;;;;;;;17.30;99.90;;;;;;5090618;28;19929;-68
2022/10/18 10:23:08;;;;;;;;;;;17.30;99.90;;;;;;5074928;28;19925;-67
2022/10/18 10:25:36;;;;;;;;;;;17.30;99.90;;;;;;5108542;28;19924;-68
2022/10/18 10:28:06;;;;;;;;;;;17.40;99.90;;;;;;5075204;28;19994;-68
2022/10/18 10:30:33;;;;;;;;;;;17.50;99.90;;;;;;5107607;28;19964;-66
2022/10/18 10:32:58;;;;;;;;;;;17.50;99.90;;;;;;5074135;28;19970;-71
2022/10/18 10:35:32;;;;;;;;;;;17.40;99.90;;;;;;5075094;28;19932;-67
2022/10/18 10:37:57;;;;;;;;;;;17.50;99.90;;;;;;5073526;28;20422;-68
2022/10/18 10:40:27;;;;;;;;;;;17.50;99.90;;;;;;5074032;28;19968;-67
2022/10/18 10:42:52;;;;;;;;;;;17.60;99.90;;;;;;5075124;28;19994;-68
2022/10/18 10:45:22;;;;;;;;;;;17.60;99.90;;;;;;5073644;28;19924;-67
2022/10/18 10:47:48;;;;;;;;;;;17.70;99.90;;;;;;5075128;28;20366;-67
2022/10/18 10:50:24;;;;;;;;;;;17.60;99.90;;;;;;5073254;28;20085;-68
2022/10/18 10:52:51;;;;;;;;;;;17.60;99.90;;;;;;5073252;28;19940;-68
2022/10/18 10:55:18;;;;;;;;;;;17.60;99.90;;;;;;5073209;28;20283;-68
2022/10/18 10:57:46;;;;;;;;;;;17.60;99.90;;;;;;5073498;28;20268;-67
2022/10/18 11:00:30;;;;;;;;;;;17.50;99.90;;;;;;5073599;28;19924;-69
2022/10/18 11:03:04;;;;;;;;;;;17.50;99.90;;;;;;5073572;28;20004;-68
2022/10/18 11:05:30;;;;;;;;;;;17.50;99.90;;;;;;5073336;28;20406;-67
2022/10/18 11:07:57;;;;;;;;;;;17.70;99.90;;;;;;5107146;28;19924;-69
2022/10/18 11:10:23;;;;;;;;;;;17.80;99.90;;;;;;5073040;28;19928;-68
2022/10/18 11:12:49;;;;;;;;;;;17.90;99.90;;;;;;5074632;28;20391;-67
2022/10/18 11:15:21;;;;;;;;;;;18.00;99.90;;;;;;5089807;28;19925;-69
2022/10/18 11:18:03;;;;;;;;;;;18.10;99.90;;;;;;5106982;28;19925;-71
2022/10/18 11:20:47;;;;;;;;;;;18.10;99.90;;;;;;5074125;28;19928;-67
2022/10/18 11:23:14;;;;;;;;;;;18.10;99.90;;;;;;5072449;28;20339;-67
2022/10/18 11:25:58;;;;;;;;;;;18.00;99.90;;;;;;5074235;28;20074;-69
2022/10/18 11:28:27;;;;;;;;;;;17.90;99.90;;;;;;5072555;28;20486;-68
2022/10/18 11:31:11;;;;;;;;;;;17.80;99.90;;;;;;5072979;28;19972;-67
2022/10/18 11:33:55;;;;;;;;;;;17.70;99.90;;;;;;5074150;28;20394;-67
2022/10/18 11:36:40;;;;;;;;;;;17.70;99.90;;;;;;5072097;28;19924;-67
2022/10/18 11:39:10;;;;;;;;;;;17.80;99.90;;;;;;5072791;28;20269;-70
2022/10/18 11:41:38;;;;;;;;;;;17.80;99.90;;;;;;5106926;28;19950;-67
2022/10/18 11:44:22;;;;;;;;;;;17.90;99.90;;;;;;5073212;28;19978;-68
2022/10/18 11:46:56;;;;;;;;;;;17.90;99.90;;;;;;5073824;28;20019;-68
2022/10/18 11:49:40;;;;;;;;;;;18.00;99.90;;;;;;5073614;28;19924;-68
2022/10/18 11:52:06;;;;;;;;;;;18.10;99.90;;;;;;5073844;28;19968;-68
2022/10/18 11:54:35;;;;;;;;;;;18.00;99.90;;;;;;5073585;28;20401;-68
2022/10/18 11:57:03;;;;;;;;;;;17.90;99.90;;;;;;5073648;28;20287;-66
2022/10/18 11:59:55;;;;;;;;;;;17.90;99.90;;;;;;5073379;28;19924;-68
2022/10/18 12:02:46;;;;;;;;;;;17.90;99.90;;;;;;5072045;28;19925;-67
2022/10/18 12:05:12;;;;;;;;;;;17.90;99.90;;;;;;5073288;28;19955;-68
2022/10/18 12:07:46;;;;;;;;;;;17.80;99.90;;;;;;5106497;28;19924;-67
2022/10/18 12:10:16;;;;;;;;;;;17.90;99.90;;;;;;5073039;28;19932;-68
2022/10/18 12:12:47;;;;;;;;;;;17.90;99.90;;;;;;5073651;28;20352;-67
2022/10/18 12:15:17;;;;;;;;;;;18.00;99.90;;;;;;5073104;28;19978;-67
2022/10/18 12:17:43;;;;;;;;;;;17.90;99.90;;;;;;5073232;28;20374;-68
2022/10/18 12:20:22;;;;;;;;;;;17.90;99.90;;;;;;5073333;28;19925;-67
2022/10/18 12:23:09;;;;;;;;;;;17.70;99.90;;;;;;5073408;28;19929;-68
2022/10/18 12:25:37;;;;;;;;;;;17.70;99.90;;;;;;5071661;28;20379;-67
2022/10/18 12:28:23;;;;;;;;;;;17.70;99.90;;;;;;5071927;28;20019;-67
2022/10/18 12:30:58;;;;;;;;;;;17.60;99.90;;;;;;5071917;28;20395;-67
2022/10/18 12:33:27;;;;;;;;;;;17.70;99.90;;;;;;5072371;28;19930;-68
2022/10/18 12:36:01;;;;;;;;;;;17.80;99.90;;;;;;5072918;28;19929;-69
2022/10/18 12:38:31;;;;;;;;;;;17.90;99.90;;;;;;5072715;28;20014;-67
2022/10/18 12:40:57;;;;;;;;;;;17.90;99.90;;;;;;5088721;28;19924;-67
2022/10/18 12:43:25;;;;;;;;;;;18.00;99.90;;;;;;5088106;28;20291;-67
2022/10/18 12:45:58;;;;;;;;;;;18.00;99.90;;;;;;5072896;28;20323;-68
2022/10/18 12:48:26;;;;;;;;;;;18.00;99.90;;;;;;5054600;28;20343;-69
2022/10/18 12:51:02;;;;;;;;;;;18.00;99.90;;;;;;5070578;28;19925;-70
2022/10/18 12:53:28;;;;;;;;;;;18.00;99.90;;;;;;5070748;28;19925;-69
2022/10/18 12:55:54;;;;;;;;;;;18.00;99.90;;;;;;5105514;28;19946;-69
2022/10/18 12:58:25;;;;;;;;;;;18.00;99.90;;;;;;5054643;28;20024;-69
2022/10/18 13:00:52;;;;;;;;;;;17.80;99.90;;;;;;5072400;28;20294;-69
2022/10/18 13:03:17;;;;;;;;;;;17.70;99.90;;;;;;5088051;28;19925;-69
2022/10/18 13:05:46;;;;;;;;;;;17.50;99.90;;;;;;5072657;28;19947;-68
2022/10/18 13:08:27;;;;;;;;;;;17.40;99.90;;;;;;5069990;28;20552;-69
2022/10/18 13:11:10;;;;;;;;;;;17.20;99.90;;;;;;5102785;28;19924;-68
2022/10/18 13:13:36;;;;;;;;;;;17.10;99.90;;;;;;5071251;28;20130;-68
2022/10/18 13:16:08;;;;;;;;;;;17.00;99.90;;;;;;5072177;28;20363;-68
2022/10/18 13:18:43;;;;;;;;;;;16.90;99.90;;;;;;5087733;28;19924;-68
2022/10/18 13:21:12;;;;;;;;;;;16.90;99.90;;;;;;5104946;28;19971;-68
2022/10/18 13:23:56;;;;;;;;;;;16.90;99.90;;;;;;5067724;28;20145;-68
2022/10/18 13:26:27;;;;;;;;;;;16.90;99.90;;;;;;5069913;28;20348;-69
2022/10/18 13:29:01;;;;;;;;;;;17.00;99.90;;;;;;5071546;28;20402;-69
2022/10/18 13:31:34;;;;;;;;;;;17.00;99.90;;;;;;5070199;28;19924;-67
2022/10/18 13:34:21;;;;;;;;;;;17.00;99.90;;;;;;5054500;28;20370;-63
2022/10/18 13:36:56;;;;;;;;;;;16.90;99.90;;;;;;5050066;28;19948;-67
2022/10/18 13:39:21;;;;;;;;;;;16.90;99.90;;;;;;5070980;28;20374;-69
2022/10/18 13:42:07;;;;;;;;;;;16.80;99.90;;;;;;5104995;28;20026;-69
2022/10/18 13:44:36;;;;;;;;;;;16.80;99.90;;;;;;5070908;28;19924;-69
2022/10/18 13:47:02;;;;;;;;;;;16.80;99.90;;;;;;5071059;28;19924;-68
2022/10/18 13:49:42;;;;;;;;;;;16.80;99.90;;;;;;5071449;28;19947;-68
2022/10/18 13:52:14;;;;;;;;;;;16.80;99.90;;;;;;5087477;28;19932;-68
2022/10/18 13:54:49;;;;;;;;;;;16.80;99.90;;;;;;5087174;28;19936;-68
2022/10/18 13:57:33;;;;;;;;;;;16.90;99.90;;;;;;5071668;28;19924;-67
2022/10/18 14:00:16;;;;;;;;;;;16.90;99.90;;;;;;5071944;28;19979;-72
2022/10/18 14:02:56;;;;;;;;;;;16.90;99.90;;;;;;5071603;28;19925;-67
2022/10/18 14:05:39;;;;;;;;;;;16.90;99.90;;;;;;5071758;28;19978;-68
2022/10/18 14:08:12;;;;;;;;;;;16.80;99.90;;;;;;5072333;28;20278;-67
2022/10/18 14:10:58;;;;;;;;;;;16.80;99.90;;;;;;5070229;28;19924;-67
2022/10/18 14:13:25;;;;;;;;;;;16.80;99.90;;;;;;5070378;28;19986;-66
2022/10/18 14:15:53;;;;;;;;;;;16.70;99.90;;;;;;5104475;28;19978;-67
2022/10/18 14:18:23;;;;;;;;;;;16.50;99.90;;;;;;5071721;28;19971;-66
2022/10/18 14:20:53;;;;;;;;;;;16.50;99.90;;;;;;5103938;28;19939;-67
2022/10/18 14:23:20;;;;;;;;;;;16.40;99.90;;;;;;5070346;28;19924;-66
2022/10/18 14:25:46;;;;;;;;;;;16.40;99.90;;;;;;5071059;28;19920;-66